createdAt,value
2023-04-21T00:01:16.394Z,3.4250000000000003
2023-04-21T00:04:17.851Z,3.2625
2023-04-21T00:07:16.195Z,3.65
2023-04-21T00:11:16.435Z,4.2625
2023-04-21T00:14:16.190Z,3.9749999999999996
2023-04-21T00:17:16.266Z,2.875
2023-04-21T00:21:17.869Z,3.5625
2023-04-21T00:24:16.500Z,2.775
2023-04-21T00:27:16.574Z,2.825
2023-04-21T00:31:16.393Z,3.15
2023-04-21T00:34:16.716Z,3.3
2023-04-21T00:37:17.025Z,3.0125
2023-04-21T00:41:16.167Z,3.25
2023-04-21T00:44:16.434Z,3
2023-04-21T00:47:16.395Z,3.025
2023-04-21T00:51:16.209Z,3
2023-04-21T00:54:17.561Z,2.4875
2023-04-21T00:57:16.441Z,2.2125
2023-04-21T01:01:15.515Z,2.8875
2023-04-21T01:04:16.143Z,2.875
2023-04-21T01:07:15.984Z,2.3125
2023-04-21T01:11:16.252Z,2.9625000000000004
2023-04-21T01:14:16.441Z,2.2875
2023-04-21T01:17:19.170Z,2.9875
2023-04-21T01:21:15.982Z,2.8625000000000003
2023-04-21T01:24:16.029Z,2.8
2023-04-21T01:27:18.132Z,2.9625
2023-04-21T01:31:16.930Z,2.7875
2023-04-21T01:34:16.419Z,2.7874999999999996
2023-04-21T01:37:18.568Z,2.5749999999999997
2023-04-21T01:41:17.309Z,2.3625
2023-04-21T01:44:15.884Z,2.4875
2023-04-21T01:47:16.655Z,2.4875
2023-04-21T01:51:15.845Z,2.6625
2023-04-21T01:54:16.331Z,2.5124999999999997
2023-04-21T01:57:17.044Z,2.0875000000000004
2023-04-21T02:01:16.261Z,3.2249999999999996
2023-04-21T02:04:17.188Z,3.0875000000000004
2023-04-21T02:07:16.682Z,2.6875
2023-04-21T02:11:15.629Z,2.575
2023-04-21T02:14:16.208Z,2.2125
2023-04-21T02:17:17.429Z,3.125
2023-04-21T02:21:16.109Z,1.7875
2023-04-21T02:24:16.699Z,2.7
2023-04-21T02:27:16.497Z,2.6750000000000003
2023-04-21T02:31:16.226Z,2.5625
2023-04-21T02:34:16.264Z,2.2625
2023-04-21T02:37:16.151Z,2.1875
2023-04-21T02:41:16.128Z,3.1
2023-04-21T02:44:16.712Z,2.325
2023-04-21T02:47:16.783Z,1.9500000000000002
2023-04-21T02:51:15.537Z,2.875
2023-04-21T02:54:15.921Z,2.25
2023-04-21T02:57:16.018Z,2.0375
2023-04-21T03:01:15.647Z,2.525
2023-04-21T03:04:15.974Z,2.3875
2023-04-21T03:07:16.782Z,2.3125
2023-04-21T03:11:16.287Z,2.0625
2023-04-21T03:14:16.881Z,2.4125
2023-04-21T03:17:16.605Z,2.7874999999999996
2023-04-21T03:21:15.701Z,2.5625
2023-04-21T03:24:16.522Z,2.0125
2023-04-21T03:27:15.856Z,2.1375
2023-04-21T03:31:15.699Z,2.75
2023-04-21T03:34:16.471Z,1.825
2023-04-21T03:37:16.174Z,2.175
2023-04-21T03:41:15.981Z,2.0625
2023-04-21T03:44:16.653Z,2.3375
2023-04-21T03:47:16.510Z,2.325
2023-04-21T03:51:15.814Z,2.6375
2023-04-21T03:54:16.159Z,2.05
2023-04-21T03:57:16.563Z,2.5625
2023-04-21T04:01:16.101Z,2.1125
2023-04-21T04:04:16.661Z,2.05
2023-04-21T04:07:17.667Z,1.8624999999999998
2023-04-21T04:11:16.248Z,2.1125000000000003
2023-04-21T04:14:16.784Z,2.2875
2023-04-21T04:17:16.467Z,2.1500000000000004
2023-04-21T04:21:16.545Z,2.5250000000000004
2023-04-21T04:24:16.491Z,2.0250000000000004
2023-04-21T04:27:16.819Z,2.1875
2023-04-21T04:31:17.339Z,2.4625000000000004
2023-04-21T04:34:16.993Z,2.65
2023-04-21T04:37:16.661Z,2.45
2023-04-21T04:41:17.214Z,2.7875
2023-04-21T04:44:18.087Z,2.05
2023-04-21T04:47:16.556Z,1.7125
2023-04-21T04:51:17.078Z,2.3625
2023-04-21T04:54:17.225Z,2.9875
2023-04-21T04:57:17.042Z,1.8375000000000001
2023-04-21T05:01:17.035Z,2.1
2023-04-21T05:04:17.759Z,1.8875
2023-04-21T05:07:16.071Z,1.875
2023-04-21T05:11:15.764Z,2.3875
2023-04-21T05:14:16.073Z,2.2625
2023-04-21T05:17:15.939Z,2.1125
2023-04-21T05:21:22.649Z,3.2250000000000005
2023-04-21T05:24:17.047Z,1.9125
2023-04-21T05:27:17.015Z,2.4749999999999996
2023-04-21T05:31:15.648Z,2.1125
2023-04-21T05:34:16.022Z,1.8624999999999998
2023-04-21T05:37:16.143Z,2.7
2023-04-21T05:41:16.378Z,2.625
2023-04-21T05:44:16.478Z,2.2875
2023-04-21T05:47:16.095Z,2.5125
2023-04-21T05:51:16.208Z,2.6375
2023-04-21T05:54:17.144Z,2.325
2023-04-21T05:57:16.885Z,2.1500000000000004
2023-04-21T06:01:16.078Z,2.3125
2023-04-21T06:04:16.703Z,2.5374999999999996
2023-04-21T06:07:18.945Z,2.3499999999999996
2023-04-21T06:11:16.363Z,2.9625000000000004
2023-04-21T06:14:16.489Z,2.3125
2023-04-21T06:17:16.959Z,1.775
2023-04-21T06:21:15.945Z,2.3875
2023-04-21T06:24:16.404Z,2.875
2023-04-21T06:27:16.789Z,2.25
2023-04-21T06:31:16.114Z,2.5375
2023-04-21T06:34:16.391Z,2.9000000000000004
2023-04-21T06:37:17.092Z,2.6875
2023-04-21T06:41:16.792Z,3.4
2023-04-21T06:44:16.380Z,2.0999999999999996
2023-04-21T06:47:16.881Z,2.5375
2023-04-21T06:51:16.516Z,2.7874999999999996
2023-04-21T06:54:17.023Z,2.275
2023-04-21T06:57:17.619Z,2.3249999999999997
2023-04-21T07:01:15.961Z,2.3125
2023-04-21T07:04:16.639Z,2.0625
2023-04-21T07:07:16.309Z,2.425
2023-04-21T07:11:16.213Z,2.525
2023-04-21T07:14:16.542Z,2.5625
2023-04-21T07:17:16.505Z,2.025
2023-04-21T07:21:16.104Z,1.9500000000000002
2023-04-21T07:24:16.312Z,2.6125
2023-04-21T07:27:16.457Z,2.4125
2023-04-21T07:31:16.194Z,2.0500000000000003
2023-04-21T07:34:16.515Z,2.8
2023-04-21T07:37:17.356Z,1.55
2023-04-21T07:41:16.352Z,2.0375
2023-04-21T07:44:16.920Z,2.5625
2023-04-21T07:47:16.822Z,2.3125
2023-04-21T07:51:18.128Z,2.2
2023-04-21T07:54:16.784Z,2.2375
2023-04-21T08:01:16.173Z,2.625
2023-04-21T08:04:16.648Z,2.7375
2023-04-21T08:07:16.797Z,2.4125
2023-04-21T08:11:15.964Z,3.3875
2023-04-21T08:14:16.430Z,2.7375
2023-04-21T08:17:16.617Z,3.25
2023-04-21T08:21:16.734Z,3.7
2023-04-21T08:24:16.760Z,3.675
2023-04-21T08:27:16.887Z,3.75
2023-04-21T08:31:16.919Z,3.3875
2023-04-21T08:34:16.219Z,3.65
2023-04-21T08:37:16.032Z,4.4375
2023-04-21T08:41:16.129Z,4.1375
2023-04-21T08:44:16.463Z,4.5875
2023-04-21T08:47:17.130Z,4.175
2023-04-21T08:51:22.132Z,4.762499999999999
2023-04-21T08:54:16.205Z,3.9375
2023-04-21T08:57:16.399Z,4.199999999999999
2023-04-21T09:11:16.205Z,4.175
2023-04-21T09:14:19.504Z,3.8749999999999996
2023-04-21T09:17:20.015Z,3.8125
2023-04-21T09:21:17.760Z,4.1875
2023-04-21T09:24:16.775Z,3.2750000000000004
2023-04-21T09:27:17.003Z,3.625
2023-04-21T09:31:18.176Z,3.7624999999999997
2023-04-21T09:34:19.347Z,4.4125
2023-04-21T09:37:18.741Z,3.7875
2023-04-21T09:41:16.781Z,3.9125
2023-04-21T09:44:18.483Z,3.4625000000000004
2023-04-21T09:47:16.060Z,3.95
2023-04-21T09:54:29.190Z,4.025
2023-04-21T09:57:24.004Z,2.925
2023-04-21T10:01:16.466Z,3.775
2023-04-21T10:04:18.796Z,3.5125
2023-04-21T10:07:16.388Z,3.2874999999999996
2023-04-21T10:11:17.102Z,3.2249999999999996
2023-04-21T10:14:16.723Z,2.4875
2023-04-21T10:17:17.946Z,2.6500000000000004
2023-04-21T10:21:19.193Z,3.0125
2023-04-21T10:24:17.228Z,2.9375
2023-04-21T10:27:56.814Z,2.5375
2023-04-21T10:31:28.778Z,2.825
2023-04-21T10:34:20.819Z,2.2875
2023-04-21T10:37:17.192Z,3.5625
2023-04-21T10:41:26.578Z,2.5875000000000004
2023-04-21T10:44:17.059Z,2.7874999999999996
2023-04-21T10:47:24.476Z,2.2875
2023-04-21T10:51:16.318Z,2.2
2023-04-21T10:54:17.213Z,2.35
2023-04-21T10:57:18.207Z,3.025
2023-04-21T11:01:16.513Z,3.1499999999999995
2023-04-21T11:04:18.275Z,3.3375
2023-04-21T11:07:18.337Z,2.85
2023-04-21T11:11:21.990Z,3.175
2023-04-21T11:14:16.956Z,2.4875
2023-04-21T11:17:19.165Z,2.2625
2023-04-21T11:21:18.838Z,2.9
2023-04-21T11:24:16.701Z,2.2
2023-04-21T11:27:17.869Z,2.1875
2023-04-21T11:31:15.884Z,2.6375
2023-04-21T11:34:20.016Z,2.3000000000000003
2023-04-21T11:37:22.391Z,2.7375
2023-04-21T11:41:20.857Z,2.7875
2023-04-21T11:44:31.559Z,4.5625
2023-04-21T11:47:19.595Z,3.4125
2023-04-21T11:51:17.278Z,2.725
2023-04-21T11:54:17.951Z,2.325
2023-04-21T11:57:18.060Z,1.9125
2023-04-21T12:01:17.068Z,3.075
2023-04-21T12:04:19.378Z,2.2375
2023-04-21T12:07:22.054Z,2.1999999999999997
2023-04-21T12:21:16.887Z,1.9500000000000002
2023-04-21T12:24:17.120Z,1.8125
2023-04-21T12:27:17.272Z,2.0875000000000004
2023-04-21T12:31:17.973Z,2
2023-04-21T12:34:16.667Z,1.6
2023-04-21T12:37:17.094Z,2.2
2023-04-21T12:41:16.173Z,1.8375
2023-04-21T12:44:16.640Z,2.025
2023-04-21T12:47:16.748Z,1.325
2023-04-21T12:51:16.765Z,1.7125
2023-04-21T12:54:17.277Z,1.7875
2023-04-21T12:57:17.158Z,1.525
2023-04-21T13:01:16.945Z,2
2023-04-21T13:04:16.929Z,1.6375
2023-04-21T13:07:19.080Z,1.45
2023-04-21T13:11:15.890Z,1.6875
2023-04-21T13:14:17.310Z,1.3875000000000002
2023-04-21T13:17:16.651Z,1.525
2023-04-21T13:31:16.335Z,1.6875
2023-04-21T13:34:16.230Z,1.4625
2023-04-21T13:37:17.864Z,1.6875
2023-04-21T13:41:16.515Z,1.9375
2023-04-21T13:44:16.724Z,1.9
2023-04-21T13:47:16.764Z,1.4
2023-04-21T13:51:15.991Z,2.575
2023-04-21T13:54:16.563Z,2.05
2023-04-21T13:57:16.377Z,2.5625
2023-04-21T14:01:16.100Z,1.7125
2023-04-21T14:04:16.742Z,1.55
2023-04-21T14:07:18.670Z,1.325
2023-04-21T14:11:15.945Z,2.0125
2023-04-21T14:14:24.176Z,1.5125
2023-04-21T14:17:17.089Z,1.575
2023-04-21T14:21:16.514Z,1.7125000000000001
2023-04-21T14:24:16.839Z,1.8
2023-04-21T14:27:16.886Z,1.8000000000000003
2023-04-21T14:31:16.282Z,1.7875
2023-04-21T14:34:16.487Z,1.9375
2023-04-21T14:37:16.653Z,1.5499999999999998
2023-04-21T14:41:16.137Z,2.0125
2023-04-21T14:44:16.740Z,1.6875
2023-04-21T14:47:16.750Z,1.6125
2023-04-21T14:51:17.209Z,2.15
2023-04-21T14:54:16.976Z,2.15
2023-04-21T14:57:21.005Z,1.7125
2023-04-21T15:01:16.521Z,1.7375
2023-04-21T15:04:16.711Z,1.8875000000000002
2023-04-21T15:07:19.830Z,1.7625
2023-04-21T15:11:16.182Z,1.9375000000000002
2023-04-21T15:14:16.582Z,2.2125
2023-04-21T15:17:16.498Z,2.5625
2023-04-21T15:21:15.714Z,1.8875000000000002
2023-04-21T15:24:16.058Z,2.175
2023-04-21T15:27:16.655Z,1.8375000000000001
2023-04-21T15:31:16.818Z,2.4
2023-04-21T15:34:16.378Z,1.5374999999999999
2023-04-21T15:37:17.568Z,1.9124999999999999
2023-04-21T15:41:16.392Z,2.075
2023-04-21T15:44:16.553Z,1.35
2023-04-21T15:47:17.215Z,1.7625
2023-04-21T15:51:17.504Z,1.9625000000000001
2023-04-21T15:54:16.115Z,1.6
2023-04-21T15:57:16.128Z,1.775
2023-04-21T16:01:17.009Z,2.15
2023-04-21T16:04:17.150Z,2.1125
2023-04-21T16:07:16.697Z,2.2
2023-04-21T16:11:15.728Z,1.7374999999999998
2023-04-21T16:14:17.115Z,1.6124999999999998
2023-04-21T16:17:16.176Z,1.8875
2023-04-21T16:21:16.448Z,1.9875000000000003
2023-04-21T16:24:16.898Z,1.7875
2023-04-21T16:27:16.997Z,1.7
2023-04-21T16:31:16.248Z,1.6125
2023-04-21T16:34:17.308Z,1.8125
2023-04-21T16:37:16.670Z,1.5
2023-04-21T16:41:18.968Z,1.5
2023-04-21T16:44:16.352Z,1.2374999999999998
2023-04-21T16:47:16.426Z,1.5875000000000001
2023-04-21T16:51:16.130Z,1.4125
2023-04-21T16:54:16.300Z,1.6375000000000002
2023-04-21T16:57:16.631Z,1.7125000000000001
2023-04-21T17:01:15.815Z,1.475
2023-04-21T17:04:16.510Z,1.4875
2023-04-21T17:07:16.750Z,1.475
2023-04-21T17:11:15.928Z,2.2
2023-04-21T17:14:16.390Z,2.475
2023-04-21T17:17:16.774Z,2.35
2023-04-21T17:21:16.410Z,3.3249999999999997
2023-04-21T17:24:16.942Z,29.062500000000004
2023-04-21T17:27:17.020Z,17.25
2023-04-21T17:31:16.687Z,17.349999999999998
2023-04-21T17:34:16.800Z,11.524999999999999
2023-04-21T17:37:16.851Z,20.7125
2023-04-21T17:41:16.353Z,12.65
2023-04-21T17:44:16.692Z,5.1125
2023-04-21T17:47:16.818Z,4.7875
2023-04-21T17:51:16.311Z,31.5625
2023-04-21T17:54:16.999Z,18.3125
2023-04-21T17:57:16.744Z,19.925000000000004
2023-04-21T18:01:15.697Z,30.9
2023-04-21T18:04:17.240Z,7.1375
2023-04-21T18:07:16.050Z,1.8625
2023-04-21T18:11:16.142Z,2.075
2023-04-21T18:14:16.040Z,2.25
2023-04-21T18:17:17.555Z,2.375
2023-04-21T18:21:16.408Z,2.4000000000000004
2023-04-21T18:24:16.493Z,2.2625
2023-04-21T18:27:16.447Z,2.3000000000000003
2023-04-21T18:31:16.335Z,8.95
2023-04-21T18:34:16.635Z,9.087499999999999
2023-04-21T18:37:16.611Z,10.5
2023-04-21T18:41:16.424Z,6.237500000000001
2023-04-21T18:44:17.004Z,7.612500000000001
2023-04-21T18:47:16.855Z,5.574999999999999
2023-04-21T18:51:16.563Z,3.0125
2023-04-21T18:54:17.060Z,4.2625
2023-04-21T18:57:16.869Z,2.5125
2023-04-21T19:01:16.682Z,3.55
2023-04-21T19:04:16.534Z,3.75
2023-04-21T19:07:16.875Z,3.9749999999999996
2023-04-21T19:11:16.191Z,3.8875
2023-04-21T19:14:16.432Z,3.3875
2023-04-21T19:17:16.406Z,2.175
2023-04-21T19:21:15.722Z,2.6500000000000004
2023-04-21T19:24:16.278Z,3.4375
2023-04-21T19:27:16.026Z,2.575
2023-04-21T19:31:19.137Z,3.3125
2023-04-21T19:34:16.819Z,2.9625000000000004
2023-04-21T19:37:16.724Z,3.35
2023-04-21T19:41:16.055Z,2.95
2023-04-21T19:44:16.554Z,3.1625
2023-04-21T19:47:16.517Z,3.5374999999999996
2023-04-21T19:51:16.239Z,3.225
2023-04-21T19:54:16.704Z,2.3125
2023-04-21T19:57:16.576Z,1.9874999999999998
2023-04-21T20:01:16.446Z,2.325
2023-04-21T20:04:16.925Z,2.4625
2023-04-21T20:07:16.681Z,1.875
2023-04-21T20:11:16.408Z,1.8375000000000001
2023-04-21T20:14:18.075Z,1.9125
2023-04-21T20:17:16.664Z,2.2
2023-04-21T20:21:16.207Z,2.1125
2023-04-21T20:24:17.408Z,1.85
2023-04-21T20:27:17.112Z,2.1625
2023-04-21T20:31:15.751Z,1.8875
2023-04-21T20:34:16.143Z,1.7875
2023-04-21T20:37:16.414Z,1.9125
2023-04-21T20:41:15.700Z,2.5250000000000004
2023-04-21T20:44:17.593Z,1.7375000000000003
2023-04-21T20:47:16.739Z,5.575
2023-04-21T20:51:15.945Z,4.0125
2023-04-21T20:54:16.251Z,4.625
2023-04-21T20:57:16.221Z,4.8
2023-04-21T21:01:16.223Z,5.5
2023-04-21T21:04:16.612Z,2.9375
2023-04-21T21:07:16.358Z,3.2750000000000004
2023-04-21T21:11:16.404Z,3.1125
2023-04-21T21:14:16.800Z,3.0375
2023-04-21T21:17:17.521Z,2.925
2023-04-21T21:21:16.061Z,3.9875
2023-04-21T21:24:16.531Z,2.6375
2023-04-21T21:27:16.279Z,2.5625
2023-04-21T21:31:16.448Z,2.925
2023-04-21T21:34:16.845Z,2.8249999999999997
2023-04-21T21:37:16.948Z,2.4124999999999996
2023-04-21T21:41:18.672Z,3.3875
2023-04-21T21:44:16.679Z,3.1625
2023-04-21T21:47:17.635Z,3.1624999999999996
2023-04-21T21:51:16.203Z,2.625
2023-04-21T21:54:16.728Z,2.375
2023-04-21T21:57:17.060Z,2.1625
2023-04-21T22:01:18.196Z,2.6500000000000004
2023-04-21T22:04:16.582Z,2.725
2023-04-21T22:07:16.336Z,2.1000000000000005
2023-04-21T22:11:17.342Z,2.4499999999999997
2023-04-21T22:14:23.359Z,2.1875
2023-04-21T22:17:16.366Z,2.8375000000000004
2023-04-21T22:21:15.742Z,2.8
2023-04-21T22:24:16.764Z,2.8499999999999996
2023-04-21T22:27:16.281Z,3.0875
2023-04-21T22:31:16.724Z,2.6999999999999997
2023-04-21T22:34:18.575Z,2.3499999999999996
2023-04-21T22:37:16.788Z,2.5125
2023-04-21T22:41:16.231Z,2.0625
2023-04-21T22:44:16.469Z,2.1625
2023-04-21T22:47:16.405Z,2.025
2023-04-21T22:51:18.296Z,2.5875
2023-04-21T22:54:16.817Z,1.6749999999999998
2023-04-21T22:57:16.665Z,1.9375
2023-04-21T23:01:16.972Z,2.125
2023-04-21T23:04:17.928Z,2.5
2023-04-21T23:07:16.999Z,1.7374999999999998
2023-04-21T23:11:16.103Z,2.1375
2023-04-21T23:14:16.447Z,2.0500000000000003
2023-04-21T23:17:16.250Z,1.9375
2023-04-21T23:21:16.420Z,2.1875
2023-04-21T23:24:16.915Z,1.7875
2023-04-21T23:27:16.847Z,1.775
2023-04-21T23:31:16.670Z,2.3
2023-04-21T23:34:16.954Z,1.65
2023-04-21T23:37:16.730Z,1.9625
2023-04-21T23:41:16.469Z,2.15
2023-04-21T23:44:16.840Z,2.1375
2023-04-21T23:47:16.865Z,2.075
2023-04-21T23:51:16.349Z,2.325
2023-04-21T23:54:16.907Z,2.8625
2023-04-21T23:57:16.819Z,2.05
